createdAt,value
2023-03-31T00:09:24.524Z,10.70
2023-03-31T00:11:52.089Z,10.70
2023-03-31T00:14:20.303Z,10.70
2023-03-31T00:19:21.150Z,10.70
2023-03-31T00:21:48.659Z,11.10
2023-03-31T00:26:43.754Z,10.70
2023-03-31T00:29:12.973Z,10.60
2023-03-31T00:39:09.170Z,10.50
2023-03-31T00:41:39.127Z,10.50
2023-03-31T00:44:13.133Z,10.40
2023-03-31T00:46:44.297Z,10.50
2023-03-31T00:49:18.113Z,10.50
2023-03-31T00:56:42.825Z,10.40
2023-03-31T00:59:12.080Z,10.40
2023-03-31T01:01:42.902Z,10.50
2023-03-31T01:04:11.650Z,10.50
2023-03-31T01:07:00.763Z,10.40
2023-03-31T01:09:34.855Z,10.60
2023-03-31T01:12:08.240Z,10.60
2023-03-31T01:19:51.912Z,10.70
2023-03-31T01:22:39.839Z,10.50
2023-03-31T01:25:32.694Z,10.70
2023-03-31T01:28:12.575Z,10.70
2023-03-31T01:30:56.843Z,10.70
2023-03-31T01:34:00.193Z,10.70
2023-03-31T01:37:11.448Z,10.70
2023-03-31T01:39:52.844Z,10.70
2023-03-31T01:47:34.632Z,10.70
2023-03-31T01:50:08.304Z,10.80
2023-03-31T01:52:48.366Z,10.70
2023-03-31T01:55:21.657Z,10.70
2023-03-31T01:57:54.018Z,10.70
2023-03-31T02:00:29.578Z,10.60
2023-03-31T02:03:17.217Z,10.70
2023-03-31T02:05:53.327Z,10.60
2023-03-31T02:08:24.218Z,10.60
2023-03-31T02:10:53.873Z,10.60
2023-03-31T02:13:22.939Z,10.60
2023-03-31T02:15:54.733Z,10.60
2023-03-31T02:18:26.078Z,10.60
2023-03-31T02:20:55.008Z,10.60
2023-03-31T02:23:26.608Z,10.60
2023-03-31T02:25:59.786Z,10.70
2023-03-31T02:28:28.529Z,10.60
2023-03-31T02:31:03.870Z,10.70
2023-03-31T02:35:59.324Z,10.70
2023-03-31T02:38:26.239Z,10.50
2023-03-31T02:43:20.744Z,10.50
2023-03-31T02:45:51.765Z,10.70
2023-03-31T02:48:19.892Z,10.70
2023-03-31T02:51:02.854Z,10.60
2023-03-31T02:53:44.541Z,10.70
2023-03-31T02:56:26.229Z,10.60
2023-03-31T02:59:04.642Z,10.70
2023-03-31T03:01:44.581Z,10.70
2023-03-31T03:04:35.681Z,10.70
2023-03-31T03:07:22.684Z,10.70
2023-03-31T03:10:10.324Z,10.70
2023-03-31T03:13:03.327Z,10.70
2023-03-31T03:15:39.098Z,10.60
2023-03-31T03:18:06.634Z,10.60
2023-03-31T03:35:18.132Z,10.50
2023-03-31T03:42:39.174Z,10.60
2023-03-31T03:52:27.444Z,10.70
2023-03-31T04:14:30.952Z,11.10
2023-03-31T04:16:58.589Z,10.90
2023-03-31T04:26:58.102Z,10.90
2023-03-31T04:31:58.574Z,11.00
2023-03-31T04:37:03.445Z,11.00
2023-03-31T04:39:31.094Z,11.00
2023-03-31T04:41:59.719Z,11.00
2023-03-31T04:46:54.382Z,11.00
2023-03-31T04:56:42.618Z,10.80
2023-03-31T05:21:17.796Z,10.80
2023-03-31T05:23:45.841Z,10.90
2023-03-31T05:31:08.808Z,10.80
2023-03-31T05:36:09.262Z,10.70
2023-03-31T05:53:18.921Z,10.70
2023-03-31T06:03:07.851Z,10.80
2023-03-31T06:05:35.555Z,10.80
2023-03-31T06:15:24.037Z,11.00
2023-03-31T06:17:51.326Z,10.90
2023-03-31T06:20:27.962Z,10.70
2023-03-31T06:40:05.633Z,10.90
2023-03-31T07:02:10.957Z,10.80
2023-03-31T07:04:37.769Z,10.80
2023-03-31T07:07:04.366Z,10.90
2023-03-31T07:16:52.518Z,10.90
2023-03-31T07:31:35.386Z,11.00
2023-03-31T07:34:03.417Z,11.10
2023-03-31T07:41:26.068Z,11.10
2023-03-31T07:46:23.104Z,11.00
2023-03-31T07:48:50.536Z,11.10
2023-03-31T07:51:20.385Z,11.00
2023-03-31T07:56:16.960Z,11.10
2023-03-31T07:58:44.408Z,11.00
2023-03-31T08:01:17.256Z,11.00
2023-03-31T08:03:45.389Z,11.00
2023-03-31T08:06:12.830Z,11.00
2023-03-31T08:18:32.052Z,11.00
2023-03-31T08:28:19.755Z,10.70
2023-03-31T08:38:08.016Z,10.50
2023-03-31T08:43:12.165Z,10.30
2023-03-31T08:45:47.625Z,10.10
2023-03-31T08:48:34.249Z,10.10
2023-03-31T08:51:12.400Z,10.10
2023-03-31T08:53:45.919Z,10.10
2023-03-31T08:56:18.618Z,10.10
2023-03-31T08:58:48.158Z,10.20
2023-03-31T09:01:54.488Z,10.10
2023-03-31T09:04:47.188Z,10.20
2023-03-31T09:07:26.144Z,10.10
2023-03-31T09:10:37.980Z,10.40
2023-03-31T09:13:22.763Z,10.20
2023-03-31T09:16:04.800Z,10.20
2023-03-31T09:18:37.898Z,10.20
2023-03-31T09:21:20.052Z,10.00
2023-03-31T09:24:21.087Z,10.10
2023-03-31T09:26:57.288Z,10.10
2023-03-31T09:34:37.434Z,10.20
2023-03-31T09:39:31.884Z,10.30
2023-03-31T09:44:40.759Z,10.40
2023-03-31T09:47:17.054Z,10.40
2023-03-31T09:49:53.753Z,10.40
2023-03-31T09:52:32.381Z,10.50
2023-03-31T09:55:02.313Z,10.50
2023-03-31T09:57:36.107Z,10.50
2023-03-31T10:00:19.000Z,10.60
2023-03-31T10:05:59.277Z,10.70
2023-03-31T10:08:38.245Z,10.80
2023-03-31T10:13:45.466Z,10.80
2023-03-31T10:16:31.535Z,10.80
2023-03-31T10:19:17.635Z,10.90
2023-03-31T10:21:47.224Z,11.00
2023-03-31T10:24:20.054Z,11.00
2023-03-31T10:26:50.544Z,11.00
2023-03-31T10:29:29.741Z,11.10
2023-03-31T10:34:24.512Z,11.10
2023-03-31T10:36:52.140Z,11.10
2023-03-31T10:39:19.875Z,11.10
2023-03-31T10:41:53.336Z,11.00
2023-03-31T10:44:38.584Z,10.80
2023-03-31T10:47:14.284Z,10.70
2023-03-31T10:49:43.861Z,10.60
2023-03-31T10:52:25.672Z,10.50
2023-03-31T10:54:59.023Z,10.40
2023-03-31T10:57:38.037Z,10.40
2023-03-31T11:00:16.483Z,10.40
2023-03-31T11:03:14.784Z,10.30
2023-03-31T11:05:54.604Z,10.40
2023-03-31T11:08:41.081Z,10.60
2023-03-31T11:11:25.986Z,10.50
2023-03-31T11:16:56.366Z,10.50
2023-03-31T11:20:00.733Z,10.50
2023-03-31T11:23:14.491Z,10.50
2023-03-31T11:25:59.145Z,10.90
2023-03-31T11:28:42.681Z,11.00
2023-03-31T11:31:52.450Z,11.20
2023-03-31T11:36:52.887Z,11.50
2023-03-31T11:41:57.904Z,11.70
2023-03-31T11:44:27.608Z,11.90
2023-03-31T11:47:20.686Z,12.10
2023-03-31T11:50:00.821Z,12.20
2023-03-31T11:52:34.307Z,12.40
2023-03-31T11:55:21.497Z,12.50
2023-03-31T11:57:56.773Z,12.60
2023-03-31T12:00:30.397Z,12.60
2023-03-31T12:03:13.291Z,12.60
2023-03-31T12:05:47.045Z,12.60
2023-03-31T12:08:25.274Z,12.80
2023-03-31T12:10:58.873Z,12.80
2023-03-31T12:16:01.924Z,13.00
2023-03-31T12:18:42.438Z,13.00
2023-03-31T12:21:10.235Z,12.90
2023-03-31T12:23:49.836Z,12.90
2023-03-31T12:28:45.722Z,12.90
2023-03-31T12:31:21.384Z,12.90
2023-03-31T12:33:56.917Z,12.90
2023-03-31T12:36:55.890Z,12.30
2023-03-31T12:40:11.408Z,13.00
2023-03-31T12:42:59.459Z,12.90
2023-03-31T12:45:30.200Z,12.90
2023-03-31T12:48:18.022Z,12.90
2023-03-31T12:51:05.136Z,13.00
2023-03-31T12:54:05.376Z,12.90
2023-03-31T12:57:15.362Z,12.90
2023-03-31T12:59:43.815Z,12.90
2023-03-31T13:02:22.892Z,12.90
2023-03-31T13:07:28.350Z,12.60
2023-03-31T13:10:12.702Z,12.50
2023-03-31T13:12:39.558Z,12.30
2023-03-31T13:15:13.944Z,12.20
2023-03-31T13:20:26.273Z,12.00
2023-03-31T13:23:04.508Z,11.90
2023-03-31T13:25:31.283Z,11.90
2023-03-31T13:28:08.416Z,11.60
2023-03-31T13:30:43.787Z,11.60
2023-03-31T13:33:17.784Z,11.50
2023-03-31T13:35:49.840Z,11.30
2023-03-31T13:38:43.302Z,11.10
2023-03-31T13:41:26.363Z,10.90
2023-03-31T13:44:24.909Z,10.80
2023-03-31T13:47:12.502Z,10.80
2023-03-31T13:50:03.970Z,10.70
2023-03-31T13:53:07.229Z,10.50
2023-03-31T13:58:34.430Z,10.50
2023-03-31T14:01:12.928Z,10.40
2023-03-31T14:04:12.115Z,10.30
2023-03-31T14:06:52.334Z,10.40
2023-03-31T14:09:27.170Z,10.40
2023-03-31T14:16:56.862Z,10.50
2023-03-31T14:19:55.110Z,10.50
2023-03-31T14:22:59.956Z,10.50
2023-03-31T14:25:49.224Z,10.50
2023-03-31T14:28:44.688Z,10.60
2023-03-31T14:31:23.944Z,10.60
2023-03-31T14:34:17.081Z,12.80
2023-03-31T14:37:08.275Z,10.80
2023-03-31T14:39:42.739Z,10.90
2023-03-31T14:42:18.097Z,10.80
2023-03-31T14:44:47.878Z,11.00
2023-03-31T14:47:19.916Z,11.10
2023-03-31T14:52:19.614Z,11.10
2023-03-31T14:54:50.459Z,13.50
2023-03-31T14:57:45.463Z,11.10
2023-03-31T15:00:15.751Z,13.10
2023-03-31T15:02:44.075Z,10.90
2023-03-31T15:05:35.047Z,11.20
2023-03-31T15:08:07.766Z,11.30
2023-03-31T15:10:45.555Z,11.30
2023-03-31T15:13:36.379Z,11.40
2023-03-31T15:16:31.905Z,11.50
2023-03-31T15:19:00.943Z,11.50
2023-03-31T15:21:31.522Z,11.50
2023-03-31T15:23:58.839Z,11.60
2023-03-31T15:26:40.318Z,11.70
2023-03-31T15:29:17.448Z,11.70
2023-03-31T15:34:14.500Z,11.80
2023-03-31T15:41:37.150Z,12.00
2023-03-31T15:44:28.861Z,12.10
2023-03-31T15:47:06.256Z,12.00
2023-03-31T15:54:34.260Z,12.10
2023-03-31T15:57:02.795Z,12.20
2023-03-31T16:02:22.371Z,12.20
2023-03-31T16:04:51.357Z,12.30
2023-03-31T16:07:21.436Z,12.30
2023-03-31T16:10:00.260Z,12.30
2023-03-31T16:12:36.111Z,12.40
2023-03-31T16:13:34.509Z,12.20
2023-03-31T16:15:18.451Z,12.40
2023-03-31T16:17:54.787Z,12.40
2023-03-31T16:20:40.197Z,12.50
2023-03-31T16:23:25.863Z,12.50
2023-03-31T16:25:52.791Z,12.60
2023-03-31T16:28:32.566Z,12.50
2023-03-31T16:31:01.941Z,12.60
2023-03-31T16:33:31.248Z,12.50
2023-03-31T16:35:58.869Z,12.50
2023-03-31T16:38:28.351Z,12.60
2023-03-31T16:40:57.610Z,12.60
2023-03-31T16:43:29.077Z,12.60
2023-03-31T16:45:57.830Z,12.60
2023-03-31T16:48:26.782Z,12.50
2023-03-31T16:50:55.982Z,12.50
2023-03-31T16:53:28.208Z,12.60
2023-03-31T16:55:56.087Z,12.60
2023-03-31T16:58:26.188Z,12.60
2023-03-31T17:00:53.915Z,12.30
2023-03-31T17:03:21.248Z,12.40
2023-03-31T17:05:53.118Z,12.40
2023-03-31T17:08:21.665Z,12.50
2023-03-31T17:11:03.527Z,12.30
2023-03-31T17:13:32.356Z,12.30
2023-03-31T17:18:44.575Z,12.10
2023-03-31T17:21:13.855Z,12.10
2023-03-31T17:23:41.177Z,12.10
2023-03-31T17:26:15.408Z,12.00
2023-03-31T17:28:42.522Z,11.90
2023-03-31T17:31:14.268Z,11.90
2023-03-31T17:33:41.714Z,11.80
2023-03-31T17:36:08.477Z,11.90
2023-03-31T17:38:35.630Z,11.80
2023-03-31T17:41:06.471Z,11.70
2023-03-31T17:43:33.370Z,11.70
2023-03-31T17:46:05.053Z,11.60
2023-03-31T17:51:09.351Z,11.40
2023-03-31T17:56:04.547Z,11.30
2023-03-31T17:58:32.270Z,11.20
2023-03-31T18:03:29.783Z,11.10
2023-03-31T18:10:50.765Z,11.20
2023-03-31T18:15:52.848Z,11.20
2023-03-31T18:18:20.698Z,11.20
2023-03-31T18:23:14.846Z,10.90
2023-03-31T18:25:47.889Z,11.10
2023-03-31T18:28:16.448Z,11.00
2023-03-31T18:33:10.980Z,11.00
2023-03-31T18:38:05.622Z,11.10
2023-03-31T18:40:32.247Z,10.90
2023-03-31T18:55:22.056Z,11.00
2023-03-31T18:57:48.847Z,11.00
2023-03-31T19:00:16.122Z,11.00
2023-03-31T19:02:43.258Z,11.10
2023-03-31T19:12:32.132Z,11.00
2023-03-31T19:39:31.817Z,11.00
2023-03-31T19:44:26.031Z,11.10
2023-03-31T19:49:19.994Z,11.00
2023-03-31T19:54:14.021Z,11.00
2023-03-31T19:56:40.632Z,10.90
2023-03-31T20:06:30.672Z,10.80
2023-03-31T20:09:02.095Z,10.80
2023-03-31T20:11:30.986Z,10.70
2023-03-31T20:13:58.811Z,10.60
2023-03-31T20:16:28.037Z,10.60
2023-03-31T20:18:59.677Z,10.60
2023-03-31T20:21:28.855Z,10.50
2023-03-31T20:26:26.398Z,10.50
2023-03-31T20:31:25.377Z,10.50
2023-03-31T20:33:53.706Z,10.50
2023-03-31T20:36:23.651Z,10.60
2023-03-31T20:38:52.374Z,10.60
2023-03-31T20:41:21.024Z,10.60
2023-03-31T20:48:47.824Z,10.60
2023-03-31T20:51:17.246Z,10.60
2023-03-31T20:53:45.761Z,10.60
2023-03-31T20:56:18.564Z,10.60
2023-03-31T20:58:46.484Z,10.60
2023-03-31T21:01:14.028Z,10.60
2023-03-31T21:03:41.583Z,10.60
2023-03-31T21:06:11.967Z,10.70
2023-03-31T21:08:42.973Z,10.70
2023-03-31T21:13:37.027Z,10.60
2023-03-31T21:18:33.252Z,10.70
2023-03-31T21:21:08.296Z,10.70
2023-03-31T21:23:35.628Z,10.70
2023-03-31T21:26:03.677Z,10.70
2023-03-31T21:28:32.756Z,10.60
2023-03-31T21:31:08.020Z,10.40
2023-03-31T21:33:37.643Z,10.50
2023-03-31T21:36:09.916Z,10.40
2023-03-31T21:38:37.133Z,10.40
2023-03-31T21:41:19.070Z,10.40
2023-03-31T21:43:46.494Z,8.70
2023-03-31T21:46:25.940Z,10.50
2023-03-31T21:48:53.337Z,10.50
2023-03-31T21:51:21.979Z,10.30
2023-03-31T21:53:50.114Z,10.50
2023-03-31T21:58:44.236Z,10.40
2023-03-31T22:01:10.908Z,10.50
2023-03-31T22:06:07.170Z,10.50
2023-03-31T22:08:36.452Z,10.50
2023-03-31T22:11:04.607Z,10.50
2023-03-31T22:18:29.647Z,10.40
2023-03-31T22:30:45.266Z,10.30
2023-03-31T22:50:25.262Z,10.10
2023-03-31T22:55:19.267Z,10.10
2023-03-31T23:00:13.804Z,10.10
2023-03-31T23:05:08.398Z,10.10
2023-03-31T23:12:29.744Z,10.20
2023-03-31T23:14:56.542Z,10.20
2023-03-31T23:22:18.597Z,10.00
2023-03-31T23:49:17.997Z,10.30
2023-03-31T23:54:12.205Z,10.10
